Time;durP1;ratioP1;P1;durP2;ratioP2;P2;SDS_P1;SDS_P2;PMS_P1;PMS_P2;Temp;Humidity;BMP_temperature;BMP_pressure;BME280_temperature;BME280_humidity;BME280_pressure;Samples;Min_cycle;Max_cycle;Signal;HPM_P1;HPM_P2
2022/07/04 00:00:08;;;;;;;7.10;3.67;;;13.80;99.90;;;;;;5054154;28;20044;-61
2022/07/04 00:02:35;;;;;;;7.38;4.32;;;13.60;99.90;;;;;;5036868;28;20095;-61
2022/07/04 00:05:01;;;;;;;10.20;4.30;;;13.80;99.90;;;;;;5053364;28;20076;-61
2022/07/04 00:07:27;;;;;;;8.25;4.65;;;13.60;99.90;;;;;;5054738;28;20120;-61
2022/07/04 00:09:52;;;;;;;7.80;3.83;;;13.80;99.90;;;;;;5052894;28;20041;-61
2022/07/04 00:12:18;;;;;;;6.47;3.90;;;13.70;99.90;;;;;;5052631;28;20043;-61
2022/07/04 00:14:44;;;;;;;7.43;4.72;;;13.70;99.90;;;;;;5052889;28;20045;-60
2022/07/04 00:17:10;;;;;;;7.00;3.65;;;13.80;99.90;;;;;;5053078;28;20102;-61
2022/07/04 00:19:36;;;;;;;10.00;5.10;;;13.70;99.90;;;;;;5036202;28;20056;-61
2022/07/04 00:22:02;;;;;;;6.75;4.10;;;13.80;99.90;;;;;;5052439;28;20057;-61
2022/07/04 00:24:28;;;;;;;7.95;4.28;;;13.60;99.90;;;;;;5054335;28;20083;-60
2022/07/04 00:26:53;;;;;;;8.18;3.97;;;13.90;99.90;;;;;;5053304;28;20041;-61
2022/07/04 00:29:19;;;;;;;6.93;3.97;;;13.70;99.90;;;;;;5054127;28;20090;-61
2022/07/04 00:31:44;;;;;;;6.38;4.13;;;13.70;99.90;;;;;;5054148;28;20055;-61
2022/07/04 00:34:10;;;;;;;6.90;4.60;;;13.70;99.90;;;;;;5051788;28;20075;-60
2022/07/04 00:36:36;;;;;;;8.23;4.65;;;13.70;99.90;;;;;;5054077;28;20043;-61
2022/07/04 00:39:02;;;;;;;8.10;3.40;;;13.60;99.90;;;;;;5053642;28;20068;-61
2022/07/04 00:41:27;;;;;;;6.45;4.03;;;13.70;99.90;;;;;;5051810;28;20068;-61
2022/07/04 00:44:01;;;;;;;8.55;4.68;;;13.70;99.90;;;;;;5053370;28;20041;-61
2022/07/04 00:46:27;;;;;;;6.35;4.40;;;13.60;99.90;;;;;;5053184;28;20041;-61
2022/07/04 00:48:52;;;;;;;6.68;3.83;;;13.60;99.90;;;;;;5052074;28;20040;-61
2022/07/04 00:51:18;;;;;;;6.95;3.92;;;13.70;99.90;;;;;;5052971;28;20048;-61
2022/07/04 00:53:45;;;;;;;8.30;4.53;;;13.70;99.90;;;;;;5052769;28;20075;-61
2022/07/04 00:56:11;;;;;;;7.22;4.28;;;13.50;99.90;;;;;;5052213;28;20069;-61
2022/07/04 00:58:37;;;;;;;9.75;4.03;;;13.80;99.90;;;;;;5052626;28;20465;-61
2022/07/04 01:01:03;;;;;;;6.93;4.00;;;13.40;99.90;;;;;;5052560;28;20055;-61
2022/07/04 01:03:29;;;;;;;6.55;4.35;;;;;;;;;;5052649;28;20040;-61
2022/07/04 01:05:56;;;;;;;7.45;4.32;;;13.40;99.90;;;;;;5052056;28;20391;-61
2022/07/04 01:08:22;;;;;;;10.10;4.47;;;13.40;99.90;;;;;;5051435;28;20076;-61
2022/07/04 01:10:47;;;;;;;7.10;4.65;;;13.40;99.90;;;;;;5052264;28;20080;-61
2022/07/04 01:13:23;;;;;;;7.55;4.53;;;13.30;99.90;;;;;;5051844;28;20033;-60
2022/07/04 01:15:50;;;;;;;6.63;4.20;;;13.60;99.90;;;;;;5051053;28;20037;-60
2022/07/04 01:18:16;;;;;;;6.63;4.78;;;13.30;99.90;;;;;;5053002;28;20033;-61
2022/07/04 01:20:43;;;;;;;9.20;4.70;;;13.30;99.90;;;;;;5053204;28;20057;-60
2022/07/04 01:23:09;;;;;;;6.80;4.78;;;13.30;99.90;;;;;;5052298;28;20095;-60
2022/07/04 01:25:34;;;;;;;8.70;4.05;;;13.40;99.90;;;;;;5051907;28;20075;-60
2022/07/04 01:28:00;;;;;;;7.55;4.65;;;13.20;99.90;;;;;;5051293;28;20044;-60
2022/07/04 01:30:27;;;;;;;6.90;3.83;;;13.40;99.90;;;;;;5050843;28;20037;-60
2022/07/04 01:32:53;;;;;;;7.82;4.75;;;13.40;99.90;;;;;;5051379;28;20051;-60
2022/07/04 01:35:19;;;;;;;11.00;4.57;;;13.40;99.90;;;;;;5052105;28;20033;-60
2022/07/04 01:37:45;;;;;;;7.95;4.53;;;13.40;99.90;;;;;;5050672;28;20497;-60
2022/07/04 01:40:12;;;;;;;8.35;4.28;;;13.40;99.90;;;;;;5051714;28;20049;-60
2022/07/04 01:42:38;;;;;;;5.70;3.83;;;13.40;99.90;;;;;;5050916;28;20045;-60
2022/07/04 01:45:05;;;;;;;7.00;4.88;;;13.30;99.90;;;;;;5052134;28;20076;-60
2022/07/04 01:47:30;;;;;;;5.93;3.58;;;13.30;99.90;;;;;;5051741;28;20082;-60
2022/07/04 01:49:56;;;;;;;6.40;4.05;;;13.30;99.90;;;;;;5051415;28;20481;-60
2022/07/04 01:52:22;;;;;;;8.00;4.82;;;13.30;99.90;;;;;;5052001;28;20037;-60
2022/07/04 01:54:47;;;;;;;7.05;4.32;;;13.30;99.90;;;;;;5052354;28;20167;-60
2022/07/04 01:57:13;;;;;;;8.10;4.15;;;13.30;99.90;;;;;;5050681;28;20394;-60
2022/07/04 02:02:24;;;;;;;8.93;4.05;;;13.30;99.90;;;;;;5051444;28;20048;-60
2022/07/04 02:04:50;;;;;;;7.13;4.47;;;13.30;99.90;;;;;;5050201;28;20033;-60
2022/07/04 02:07:16;;;;;;;9.23;4.68;;;13.30;99.90;;;;;;5050818;28;20496;-60
2022/07/04 02:09:42;;;;;;;6.70;4.40;;;13.30;99.90;;;;;;5051291;28;20037;-60
2022/07/04 02:14:52;;;;;;;8.13;4.38;;;13.30;99.90;;;;;;5050821;28;20044;-60
2022/07/04 02:17:18;;;;;;;6.28;4.03;;;13.30;99.90;;;;;;5051448;28;20048;-60
2022/07/04 02:19:43;;;;;;;9.02;4.45;;;13.30;99.90;;;;;;5051181;28;20470;-60
2022/07/04 02:22:09;;;;;;;7.75;4.82;;;13.30;99.90;;;;;;5050626;28;20390;-60
2022/07/04 02:24:35;;;;;;;7.72;4.60;;;13.40;99.90;;;;;;5051008;28;20064;-60
2022/07/04 02:27:01;;;;;;;6.50;3.83;;;13.30;99.90;;;;;;5049911;28;20098;-60
2022/07/04 02:29:26;;;;;;;6.38;3.97;;;13.20;99.90;;;;;;5050716;28;20437;-60
2022/07/04 02:31:52;;;;;;;8.63;4.45;;;13.20;99.90;;;;;;5049803;28;20041;-60
2022/07/04 02:34:18;;;;;;;7.55;3.80;;;13.20;99.90;;;;;;5052172;28;20111;-60
2022/07/04 02:36:44;;;;;;;8.15;4.63;;;13.20;99.90;;;;;;5052124;28;20443;-60
2022/07/04 02:39:09;;;;;;;8.25;4.63;;;13.20;99.90;;;;;;5049902;28;20051;-60
2022/07/04 02:41:35;;;;;;;10.60;4.43;;;13.20;99.90;;;;;;5052143;28;20076;-60
2022/07/04 02:44:01;;;;;;;9.18;5.70;;;13.20;99.90;;;;;;5051475;28;20033;-60
2022/07/04 02:46:27;;;;;;;7.05;4.60;;;13.20;99.90;;;;;;5050053;28;20073;-59
2022/07/04 02:48:53;;;;;;;10.57;4.70;;;13.40;99.90;;;;;;5050363;28;20478;-60
2022/07/04 02:51:18;;;;;;;7.82;4.85;;;13.20;99.90;;;;;;5052178;28;20049;-60
2022/07/04 02:53:44;;;;;;;7.43;4.70;;;13.20;99.90;;;;;;5049944;28;20040;-60
2022/07/04 02:56:09;;;;;;;7.55;4.53;;;13.10;99.90;;;;;;5051786;28;20041;-60
2022/07/04 02:58:35;;;;;;;11.32;4.82;;;13.20;99.90;;;;;;5051985;28;20086;-60
2022/07/04 03:01:01;;;;;;;9.55;4.50;;;13.20;99.90;;;;;;5049340;28;20045;-60
2022/07/04 03:03:27;;;;;;;7.28;4.55;;;13.20;99.90;;;;;;5050735;28;20041;-60
2022/07/04 03:05:52;;;;;;;9.43;4.95;;;13.30;99.90;;;;;;5054365;28;20045;-60
2022/07/04 03:08:18;;;;;;;8.32;5.20;;;13.30;99.90;;;;;;5055163;28;20037;-60
2022/07/04 03:10:44;;;;;;;9.50;4.65;;;13.30;99.90;;;;;;5055616;28;20044;-60
2022/07/04 03:13:10;;;;;;;10.10;5.57;;;13.30;99.90;;;;;;5037656;28;20037;-60
2022/07/04 03:15:36;;;;;;;7.35;4.53;;;13.50;99.90;;;;;;5053945;28;20128;-60
2022/07/04 03:18:01;;;;;;;13.15;5.43;;;13.30;99.90;;;;;;5053752;28;20512;-60
2022/07/04 03:20:27;;;;;;;8.60;5.40;;;13.30;99.90;;;;;;5054150;28;20053;-60
2022/07/04 03:22:54;;;;;;;9.70;5.15;;;13.40;99.90;;;;;;5053267;28;20414;-60
2022/07/04 03:25:20;;;;;;;10.75;5.25;;;13.50;99.90;;;;;;5055517;28;20037;-60
2022/07/04 03:27:46;;;;;;;10.30;5.43;;;13.60;99.90;;;;;;5053962;28;20044;-60
2022/07/04 03:30:12;;;;;;;9.80;4.70;;;13.40;99.90;;;;;;5054447;28;20473;-60
2022/07/04 03:32:38;;;;;;;7.93;4.30;;;13.40;99.90;;;;;;5054166;28;20120;-60
2022/07/04 03:35:05;;;;;;;10.00;4.88;;;13.50;99.90;;;;;;5053891;28;20033;-61
2022/07/04 03:37:30;;;;;;;12.52;4.57;;;13.50;99.90;;;;;;5054294;28;20502;-60
2022/07/04 03:39:56;;;;;;;10.50;4.43;;;13.50;99.90;;;;;;5054755;28;20044;-60
2022/07/04 03:42:22;;;;;;;10.95;5.95;;;13.60;99.90;;;;;;5054559;28;20033;-60
2022/07/04 03:44:47;;;;;;;7.63;3.80;;;13.70;99.90;;;;;;5053917;28;20553;-60
2022/07/04 03:47:13;;;;;;;7.65;4.50;;;13.60;99.90;;;;;;5053335;28;20053;-60
2022/07/04 03:49:39;;;;;;;8.90;4.75;;;13.70;99.90;;;;;;5053114;28;20044;-60
2022/07/04 03:52:05;;;;;;;8.88;4.43;;;13.70;99.90;;;;;;5053468;28;20048;-60
2022/07/04 03:54:30;;;;;;;8.20;3.97;;;13.70;99.90;;;;;;5055135;28;20044;-60
2022/07/04 03:56:56;;;;;;;7.65;5.38;;;13.70;99.90;;;;;;5035889;28;20037;-60
2022/07/04 03:59:22;;;;;;;8.68;4.60;;;13.80;99.90;;;;;;5054858;28;20102;-60
2022/07/04 04:01:48;;;;;;;9.02;4.38;;;13.80;99.90;;;;;;5053382;28;20045;-60
2022/07/04 04:06:57;;;;;;;9.38;4.63;;;13.90;99.90;;;;;;5054281;28;20049;-60
2022/07/04 04:09:24;;;;;;;8.00;4.30;;;13.90;99.90;;;;;;5053374;28;20120;-60
2022/07/04 04:11:50;;;;;;;8.35;4.68;;;14.00;99.90;;;;;;5052377;28;20041;-60
2022/07/04 04:14:16;;;;;;;7.05;4.50;;;14.00;99.90;;;;;;5054374;28;20052;-60
2022/07/04 04:16:42;;;;;;;8.30;4.65;;;14.10;99.90;;;;;;5053714;28;20041;-60
2022/07/04 04:19:09;;;;;;;12.35;4.45;;;12.10;99.90;;;;;;5053642;28;20106;-60
2022/07/04 04:21:35;;;;;;;11.63;4.60;;;14.20;99.90;;;;;;5053083;28;20057;-60
2022/07/04 04:24:02;;;;;;;9.00;4.93;;;14.30;99.90;;;;;;5052638;28;20063;-60
2022/07/04 04:26:28;;;;;;;10.70;4.32;;;14.40;99.90;;;;;;5053500;28;20045;-60
2022/07/04 04:28:53;;;;;;;10.32;5.25;;;14.40;99.90;;;;;;5035806;28;20045;-61
2022/07/04 04:31:19;;;;;;;7.70;4.35;;;14.50;99.90;;;;;;5052529;28;20123;-60
2022/07/04 04:33:45;;;;;;;7.22;4.00;;;14.50;99.90;;;;;;5054142;28;20440;-60
2022/07/04 04:36:10;;;;;;;9.18;4.55;;;14.60;99.90;;;;;;5054083;28;20454;-60
2022/07/04 04:38:36;;;;;;;9.43;4.45;;;14.60;99.90;;;;;;5052221;28;20048;-60
2022/07/04 04:41:02;;;;;;;7.70;4.20;;;14.70;99.90;;;;;;5052355;28;20936;-60
2022/07/04 04:43:28;;;;;;;7.60;4.47;;;14.60;99.90;;;;;;5052780;28;20041;-59
2022/07/04 04:45:53;;;;;;;8.38;4.75;;;14.70;99.90;;;;;;5051418;28;20052;-60
2022/07/04 04:48:19;;;;;;;7.72;4.45;;;14.70;99.90;;;;;;5053908;28;20170;-60
2022/07/04 04:50:45;;;;;;;10.82;5.10;;;14.80;99.90;;;;;;5052474;28;20118;-59
2022/07/04 04:53:12;;;;;;;12.10;4.93;;;14.90;99.90;;;;;;5051666;28;20037;-60
2022/07/04 04:55:38;;;;;;;11.68;5.38;;;15.00;99.90;;;;;;5053927;28;20044;-60
2022/07/04 04:58:13;;;;;;;7.70;4.13;;;15.00;99.90;;;;;;5052146;28;20444;-60
2022/07/04 05:00:38;;;;;;;7.80;4.75;;;15.10;99.90;;;;;;5051742;28;20474;-60
2022/07/04 05:03:04;;;;;;;8.85;4.95;;;15.10;99.90;;;;;;5052023;28;20045;-61
2022/07/04 05:05:30;;;;;;;8.80;5.70;;;15.10;99.90;;;;;;5053767;28;20041;-60
2022/07/04 05:07:56;;;;;;;7.78;4.53;;;15.10;99.90;;;;;;5051019;28;20429;-60
2022/07/04 05:10:21;;;;;;;8.70;4.55;;;15.20;99.90;;;;;;5052813;28;20509;-60
2022/07/04 05:12:47;;;;;;;8.30;4.82;;;15.20;99.90;;;;;;5035308;28;20493;-60
2022/07/04 05:15:13;;;;;;;6.72;4.07;;;15.30;99.90;;;;;;5052362;28;20041;-60
2022/07/04 05:17:39;;;;;;;7.53;4.75;;;15.40;99.90;;;;;;5052357;28;20047;-60
2022/07/04 05:20:05;;;;;;;8.95;4.85;;;15.60;99.90;;;;;;5051475;28;20052;-60
2022/07/04 05:22:31;;;;;;;7.93;4.47;;;15.80;99.90;;;;;;5051173;28;20060;-60
2022/07/04 05:24:56;;;;;;;8.90;4.18;;;15.90;99.90;;;;;;5034885;28;20494;-60
2022/07/04 05:27:22;;;;;;;9.43;4.55;;;16.00;99.90;;;;;;5051922;28;20045;-60
2022/07/04 05:29:48;;;;;;;11.10;4.35;;;16.10;99.90;;;;;;5034231;28;20041;-60
2022/07/04 05:32:13;;;;;;;8.10;4.13;;;16.20;99.90;;;;;;5051926;28;20124;-60
2022/07/04 05:34:39;;;;;;;9.45;4.47;;;16.20;99.90;;;;;;5052401;28;20040;-60
2022/07/04 05:37:05;;;;;;;7.07;3.40;;;16.20;99.90;;;;;;5051405;28;20400;-60
2022/07/04 05:39:31;;;;;;;9.15;3.92;;;16.30;99.90;;;;;;5051909;28;20452;-60
2022/07/04 05:41:56;;;;;;;6.03;3.35;;;16.30;99.90;;;;;;5050423;28;20036;-60
2022/07/04 05:44:22;;;;;;;7.60;3.85;;;;;;;;;;5035128;28;20037;-60
2022/07/04 05:46:48;;;;;;;7.78;3.80;;;16.80;99.90;;;;;;5052668;28;20044;-61
2022/07/04 05:49:14;;;;;;;9.70;4.63;;;16.90;99.90;;;;;;5050640;28;20029;-60
2022/07/04 05:51:39;;;;;;;8.57;3.40;;;16.90;99.90;;;;;;5051778;28;20136;-61
2022/07/04 05:54:05;;;;;;;12.45;4.55;;;17.10;99.90;;;;;;5051381;28;20037;-61
2022/07/04 05:56:31;;;;;;;10.30;4.40;;;17.20;99.90;;;;;;5051963;28;20483;-60
2022/07/04 05:58:56;;;;;;;10.38;4.40;;;17.40;99.90;;;;;;5052316;28;20044;-61
2022/07/04 06:01:22;;;;;;;8.60;4.20;;;17.40;99.90;;;;;;5052729;28;20067;-60
2022/07/04 06:03:49;;;;;;;8.60;3.40;;;17.60;99.90;;;;;;5050361;28;20044;-61
2022/07/04 06:06:15;;;;;;;7.25;3.50;;;17.70;99.90;;;;;;5052237;28;20086;-60
2022/07/04 06:08:41;;;;;;;5.75;3.58;;;17.80;99.90;;;;;;5052532;28;20045;-61
2022/07/04 06:11:07;;;;;;;9.48;4.18;;;17.90;99.90;;;;;;5049843;28;20067;-61
2022/07/04 06:13:32;;;;;;;8.63;3.63;;;17.90;99.90;;;;;;5051406;28;20041;-60
2022/07/04 06:15:58;;;;;;;7.10;2.95;;;18.00;99.90;;;;;;5050686;28;20040;-61
2022/07/04 06:18:24;;;;;;;6.45;2.75;;;18.10;99.90;;;;;;5050545;28;20383;-60
2022/07/04 06:20:49;;;;;;;8.55;2.88;;;18.20;99.90;;;;;;5051864;28;20128;-60
2022/07/04 06:23:15;;;;;;;7.85;3.15;;;18.40;99.90;;;;;;5052030;28;20088;-60
2022/07/04 06:25:41;;;;;;;10.55;2.83;;;18.50;99.90;;;;;;5050283;28;20045;-61
2022/07/04 06:28:06;;;;;;;7.60;3.17;;;18.60;99.90;;;;;;5051811;28;20434;-61
2022/07/04 06:30:32;;;;;;;6.72;2.78;;;18.60;99.90;;;;;;5051151;28;20393;-60
2022/07/04 06:32:59;;;;;;;5.95;2.88;;;18.70;99.90;;;;;;5049593;28;20033;-61
2022/07/04 06:35:45;;;;;;;6.95;2.30;;;18.70;99.90;;;;;;5051151;28;20153;-61
2022/07/04 06:38:14;;;;;;;8.40;2.80;;;18.60;99.90;;;;;;5049783;28;20056;-61
2022/07/04 06:40:40;;;;;;;8.10;3.28;;;18.60;99.90;;;;;;5052132;28;20033;-61
2022/07/04 06:43:05;;;;;;;6.32;2.65;;;18.50;99.90;;;;;;5050730;28;20493;-61
2022/07/04 06:45:33;;;;;;;7.00;2.85;;;18.40;99.90;;;;;;5051382;28;20120;-61
2022/07/04 06:47:59;;;;;;;7.07;2.80;;;18.50;99.90;;;;;;5050299;28;20079;-61
2022/07/04 06:50:25;;;;;;;6.18;2.45;;;18.60;99.90;;;;;;5050705;28;20041;-61
2022/07/04 06:52:51;;;;;;;4.45;1.80;;;18.60;99.90;;;;;;5052004;28;20496;-62
2022/07/04 06:55:18;;;;;;;6.10;1.85;;;18.80;99.90;;;;;;5065278;28;20062;-61
2022/07/04 06:57:54;;;;;;;4.95;1.52;;;18.80;99.90;;;;;;5054580;28;20493;-62
2022/07/04 07:00:20;;;;;;;4.50;1.92;;;18.70;99.90;;;;;;5050129;28;20041;-61
2022/07/04 07:02:46;;;;;;;4.57;1.73;;;18.70;99.90;;;;;;5054298;28;20113;-61
2022/07/04 07:05:11;;;;;;;6.45;2.20;;;18.80;99.90;;;;;;5069218;28;20443;-61
2022/07/04 07:07:37;;;;;;;10.00;2.47;;;18.80;99.90;;;;;;5069141;28;20136;-61
2022/07/04 07:10:03;;;;;;;6.15;1.92;;;18.90;99.90;;;;;;5065726;28;20049;-62
2022/07/04 07:12:30;;;;;;;4.60;1.80;;;19.00;99.90;;;;;;5056311;28;20102;-62
2022/07/04 07:14:55;;;;;;;4.55;1.83;;;19.10;99.90;;;;;;5045233;28;20041;-61
2022/07/04 07:17:21;;;;;;;6.70;2.03;;;19.30;99.90;;;;;;5052197;28;20527;-62
2022/07/04 07:19:47;;;;;;;5.10;1.85;;;19.40;99.90;;;;;;5057740;28;20041;-62
2022/07/04 07:22:16;;;;;;;3.65;1.63;;;19.30;99.90;;;;;;5067858;28;20056;-62
2022/07/04 07:24:42;;;;;;;5.18;1.83;;;19.20;99.90;;;;;;5050258;28;20107;-61
2022/07/04 07:27:08;;;;;;;4.70;1.50;;;19.10;99.90;;;;;;5048600;28;20048;-61
2022/07/04 07:29:36;;;;;;;4.55;1.60;;;18.90;99.90;;;;;;5051542;28;20124;-61
2022/07/04 07:32:01;;;;;;;3.50;1.30;;;18.80;99.90;;;;;;5062206;28;20087;-61
2022/07/04 07:34:27;;;;;;;5.65;1.30;;;18.70;99.90;;;;;;5067346;28;20501;-61
2022/07/04 07:36:53;;;;;;;3.72;1.23;;;18.70;99.90;;;;;;5068673;28;20124;-62
2022/07/04 07:39:19;;;;;;;3.92;1.17;;;18.50;99.90;;;;;;5068591;28;20062;-62
2022/07/04 07:41:45;;;;;;;4.13;1.58;;;18.40;99.90;;;;;;5066410;28;20082;-61
2022/07/04 07:44:11;;;;;;;3.17;1.10;;;18.40;99.90;;;;;;5067130;28;20047;-61
2022/07/04 07:46:37;;;;;;;2.40;1.08;;;18.50;99.90;;;;;;5063659;28;20037;-62
2022/07/04 07:49:03;;;;;;;4.18;1.60;;;18.60;99.90;;;;;;5067107;28;20098;-61
2022/07/04 07:51:29;;;;;;;3.33;1.10;;;18.60;99.90;;;;;;5061747;28;20120;-61
2022/07/04 07:53:54;;;;;;;6.32;1.20;;;18.80;99.90;;;;;;5059218;28;20390;-61
2022/07/04 07:56:20;;;;;;;2.35;1.17;;;18.80;99.90;;;;;;5071406;28;20082;-62
2022/07/04 07:58:46;;;;;;;3.80;0.88;;;18.80;99.90;;;;;;5071463;28;20036;-61
2022/07/04 08:01:12;;;;;;;2.58;1.00;;;18.90;99.90;;;;;;5070564;28;20044;-62
2022/07/04 08:06:21;;;;;;;3.77;1.00;;;19.00;99.90;;;;;;5055281;28;20060;-62
2022/07/04 08:08:47;;;;;;;2.17;0.93;;;19.10;99.90;;;;;;5062933;28;20398;-62
2022/07/04 08:11:13;;;;;;;2.15;0.77;;;19.40;99.90;;;;;;5068978;28;20054;-62
2022/07/04 08:13:39;;;;;;;2.40;1.02;;;19.60;99.90;;;;;;5072141;28;20089;-62
2022/07/04 08:16:06;;;;;;;3.25;1.38;;;19.70;99.90;;;;;;5069754;28;20119;-61
2022/07/04 08:18:32;;;;;;;4.13;1.23;;;19.60;99.90;;;;;;5070077;28;20044;-61
2022/07/04 08:20:58;;;;;;;3.50;1.50;;;19.40;99.90;;;;;;5069697;28;20523;-61
2022/07/04 08:23:24;;;;;;;2.88;1.10;;;19.40;99.90;;;;;;5041948;28;20144;-61
2022/07/04 08:25:50;;;;;;;3.47;1.52;;;19.30;99.90;;;;;;5070534;28;20464;-62
2022/07/04 08:28:15;;;;;;;4.07;1.30;;;19.10;99.90;;;;;;5068681;28;20043;-61
2022/07/04 08:30:41;;;;;;;5.78;1.40;;;19.10;99.90;;;;;;5060247;28;20088;-62
2022/07/04 08:33:07;;;;;;;4.85;1.20;;;19.00;99.90;;;;;;5050951;28;20079;-62
2022/07/04 08:35:34;;;;;;;4.28;1.10;;;18.80;99.90;;;;;;5053693;28;20139;-62
2022/07/04 08:38:00;;;;;;;3.90;1.20;;;18.90;99.90;;;;;;5050408;28;20051;-61
2022/07/04 08:40:27;;;;;;;3.70;1.30;;;19.00;99.90;;;;;;5070128;28;20044;-61
2022/07/04 08:42:54;;;;;;;4.03;1.17;;;19.00;99.90;;;;;;5061328;28;20041;-62
2022/07/04 08:45:32;;;;;;;3.60;1.48;;;19.00;99.90;;;;;;5062474;28;20481;-61
2022/07/04 08:48:06;;;;;;;7.22;1.90;;;19.00;99.90;;;;;;5060138;28;20041;-61
2022/07/04 08:50:35;;;;;;;5.75;1.65;;;19.00;99.90;;;;;;5071958;28;20129;-61
2022/07/04 08:53:06;;;;;;;4.43;1.70;;;19.00;99.90;;;;;;5083528;28;20044;-61
2022/07/04 08:58:26;;;;;;;4.28;1.85;;;19.00;99.90;;;;;;5069715;28;20119;-61
2022/07/04 09:00:53;;;;;;;4.63;1.50;;;19.10;99.90;;;;;;5055862;28;20041;-62
2022/07/04 09:03:21;;;;;;;3.63;1.08;;;19.10;99.90;;;;;;5066446;28;20056;-61
2022/07/04 09:05:47;;;;;;;3.97;1.05;;;;;;;;;;5062786;28;20049;-61
2022/07/04 09:08:13;;;;;;;4.63;1.70;;;18.90;99.90;;;;;;5065524;28;20041;-61
2022/07/04 09:10:39;;;;;;;5.07;1.50;;;18.80;99.90;;;;;;5069630;28;20082;-63
2022/07/04 09:13:06;;;;;;;3.75;1.20;;;18.70;99.90;;;;;;5051358;28;20068;-62
2022/07/04 09:15:32;;;;;;;6.05;2.10;;;18.60;99.90;;;;;;5072766;28;20044;-62
2022/07/04 09:17:59;;;;;;;3.85;1.70;;;18.70;99.90;;;;;;5065585;28;20041;-62
2022/07/04 09:20:25;;;;;;;4.70;1.67;;;18.80;99.90;;;;;;5051132;28;20052;-62
2022/07/04 09:22:53;;;;;;;8.68;2.05;;;19.10;99.90;;;;;;5064317;28;20052;-62
2022/07/04 09:25:19;;;;;;;4.68;1.60;;;19.20;99.90;;;;;;5072111;28;20047;-62
2022/07/04 09:27:52;;;;;;;4.30;1.60;;;19.40;99.90;;;;;;5064429;28;20474;-62
2022/07/04 09:30:20;;;;;;;5.18;1.42;;;19.60;99.90;;;;;;5051954;28;20044;-61
2022/07/04 09:32:52;;;;;;;6.95;1.80;;;19.70;99.90;;;;;;5049806;28;20090;-61
2022/07/04 09:35:22;;;;;;;5.82;2.00;;;19.80;99.90;;;;;;5072588;28;20045;-61
2022/07/04 09:37:59;;;;;;;5.20;2.05;;;19.90;99.90;;;;;;5072231;28;20081;-61
2022/07/04 09:40:27;;;;;;;3.55;1.40;;;20.00;99.90;;;;;;5056815;28;20489;-61
2022/07/04 09:42:54;;;;;;;4.97;1.90;;;20.00;99.90;;;;;;5051407;28;20044;-61
2022/07/04 09:45:23;;;;;;;4.13;1.63;;;20.00;99.90;;;;;;5060328;28;20037;-62
2022/07/04 09:47:55;;;;;;;4.22;1.38;;;19.90;99.90;;;;;;5038545;28;20036;-63
2022/07/04 09:50:23;;;;;;;2.80;1.15;;;20.00;99.90;;;;;;5055620;28;20083;-62
2022/07/04 09:52:50;;;;;;;2.92;1.30;;;20.00;99.90;;;;;;5059182;28;20056;-62
2022/07/04 09:55:22;;;;;;;5.97;1.85;;;20.10;99.90;;;;;;5050469;28;20071;-62
2022/07/04 09:57:48;;;;;;;3.85;1.30;;;20.10;99.90;;;;;;5051297;28;20037;-61
2022/07/04 10:00:21;;;;;;;4.25;1.70;;;20.20;99.90;;;;;;5066075;28;20072;-62
2022/07/04 10:02:48;;;;;;;4.57;1.50;;;20.20;99.90;;;;;;5066494;28;20098;-61
2022/07/04 10:05:22;;;;;;;5.15;1.60;;;20.10;99.90;;;;;;5056088;28;20041;-62
2022/07/04 10:07:48;;;;;;;5.63;1.93;;;20.20;99.90;;;;;;5063955;28;20384;-62
2022/07/04 10:10:35;;;;;;;4.53;1.25;;;20.50;99.90;;;;;;5051830;28;20083;-62
2022/07/04 10:13:09;;;;;;;3.88;1.65;;;20.70;99.90;;;;;;5054340;28;20436;-61
2022/07/04 10:15:38;;;;;;;4.80;1.35;;;20.50;99.90;;;;;;5052173;28;20041;-61
2022/07/04 10:18:05;;;;;;;3.72;1.50;;;20.80;99.90;;;;;;5050188;28;20080;-61
2022/07/04 10:20:31;;;;;;;4.22;1.55;;;20.70;99.90;;;;;;5051012;28;20041;-61
2022/07/04 10:22:58;;;;;;;3.95;1.30;;;20.70;99.90;;;;;;5033287;28;20048;-61
2022/07/04 10:25:24;;;;;;;2.35;1.25;;;20.60;99.90;;;;;;5051290;28;20052;-62
2022/07/04 10:27:51;;;;;;;2.20;1.10;;;20.30;99.90;;;;;;5051924;28;20036;-61
2022/07/04 10:30:25;;;;;;;3.33;1.10;;;20.70;99.90;;;;;;5052318;28;20081;-62
2022/07/04 10:32:53;;;;;;;3.85;1.50;;;20.60;99.50;;;;;;5052184;28;20045;-61
2022/07/04 10:35:49;;;;;;;4.13;1.20;;;20.60;99.90;;;;;;5061946;28;20466;-60
2022/07/04 10:38:19;;;;;;;3.60;1.42;;;20.50;98.50;;;;;;5060092;28;20043;-61
2022/07/04 10:40:53;;;;;;;4.05;1.58;;;20.40;99.90;;;;;;5063595;28;20037;-61
2022/07/04 10:43:25;;;;;;;5.25;1.63;;;20.40;99.50;;;;;;5052116;28;20469;-61
2022/07/04 10:45:54;;;;;;;6.55;1.58;;;20.40;99.80;;;;;;5063312;28;20076;-61
2022/07/04 10:48:22;;;;;;;3.03;1.02;;;20.60;99.90;;;;;;5060699;28;20481;-61
2022/07/04 10:51:04;;;;;;;4.35;1.38;;;20.50;99.90;;;;;;5061536;28;20033;-61
2022/07/04 10:53:31;;;;;;;4.20;1.55;;;20.70;99.90;;;;;;5057323;28;20102;-61
2022/07/04 10:56:20;;;;;;;3.80;1.30;;;20.30;99.90;;;;;;5051417;28;20121;-62
2022/07/04 10:58:46;;;;;;;4.35;1.20;;;20.30;99.80;;;;;;5046974;28;20064;-62
2022/07/04 11:01:12;;;;;;;3.70;1.17;;;20.10;99.90;;;;;;5067763;28;20049;-61
2022/07/04 11:03:49;;;;;;;5.53;1.23;;;20.10;99.90;;;;;;5069000;28;20041;-62
2022/07/04 11:06:33;;;;;;;3.78;1.40;;;20.50;99.90;;;;;;5061310;28;20075;-62
2022/07/04 11:09:22;;;;;;;3.00;1.00;;;20.90;99.90;;;;;;5059911;28;20040;-62
2022/07/04 11:11:56;;;;;;;4.03;1.48;;;21.20;96.10;;;;;;5048745;28;20041;-62
2022/07/04 11:14:44;;;;;;;4.22;1.25;;;21.30;98.60;;;;;;5061629;28;20086;-61
2022/07/04 11:17:20;;;;;;;5.55;1.50;;;21.20;97.50;;;;;;5070582;28;20044;-61
2022/07/04 11:19:47;;;;;;;7.82;1.40;;;21.00;99.90;;;;;;5052200;28;20040;-61
2022/07/04 11:22:22;;;;;;;6.45;1.60;;;20.70;99.90;;;;;;5051100;28;20111;-61
2022/07/04 11:24:48;;;;;;;3.85;1.40;;;20.40;99.90;;;;;;5062694;28;20064;-61
2022/07/04 11:27:15;;;;;;;5.57;1.65;;;20.20;99.90;;;;;;5073329;28;20048;-62
2022/07/04 11:29:53;;;;;;;6.72;2.05;;;20.00;99.90;;;;;;5073807;28;20054;-62
2022/07/04 11:32:19;;;;;;;4.03;1.20;;;20.20;99.90;;;;;;5066980;28;20041;-62
2022/07/04 11:34:46;;;;;;;5.60;1.55;;;20.70;99.90;;;;;;5054441;28;20040;-61
2022/07/04 11:37:12;;;;;;;4.57;1.60;;;20.50;99.90;;;;;;5060074;28;20047;-61
2022/07/04 11:39:38;;;;;;;4.38;1.35;;;20.80;99.30;;;;;;5073916;28;20486;-61
2022/07/04 11:45:05;;;;;;;4.40;1.50;;;20.60;99.90;;;;;;5073807;28;20053;-61
2022/07/04 11:47:36;;;;;;;4.97;1.20;;;20.50;99.90;;;;;;5074482;28;20051;-61
2022/07/04 11:50:09;;;;;;;3.65;1.20;;;20.70;99.90;;;;;;5045971;28;20079;-61
2022/07/04 11:52:37;;;;;;;3.35;1.38;;;20.90;99.90;;;;;;5054052;28;20429;-61
2022/07/04 11:55:08;;;;;;;3.92;1.08;;;20.80;99.90;;;;;;5055289;28;20032;-61
2022/07/04 11:57:43;;;;;;;6.55;1.20;;;20.80;94.10;;;;;;5057037;28;20050;-61
2022/07/04 12:00:11;;;;;;;3.10;0.88;;;21.00;99.90;;;;;;5073352;28;20039;-61
2022/07/04 12:02:37;;;;;;;3.08;1.00;;;21.10;91.90;;;;;;5068552;28;20040;-61
2022/07/04 12:05:05;;;;;;;2.83;0.90;;;21.20;99.90;;;;;;5061673;28;20076;-61
2022/07/04 12:07:33;;;;;;;2.83;0.90;;;21.30;91.80;;;;;;5073179;28;20036;-60
2022/07/04 12:10:17;;;;;;;4.82;1.00;;;21.60;97.30;;;;;;5071839;28;20072;-60
2022/07/04 12:12:57;;;;;;;3.17;1.35;;;21.30;86.80;;;;;;5073466;28;20044;-61
2022/07/04 12:15:25;;;;;;;3.45;0.93;;;21.40;86.60;;;;;;5073525;28;20048;-61
2022/07/04 12:17:54;;;;;;;6.47;1.23;;;21.40;87.20;;;;;;5072791;28;20044;-61
2022/07/04 12:20:22;;;;;;;4.88;0.88;;;21.70;90.00;;;;;;5074373;28;20501;-61
2022/07/04 12:22:56;;;;;;;2.65;0.90;;;21.50;99.90;;;;;;5072188;28;20090;-61
2022/07/04 12:25:39;;;;;;;3.88;0.98;;;21.80;93.40;;;;;;5063039;28;20052;-61
2022/07/04 12:28:10;;;;;;;5.68;1.40;;;21.60;92.70;;;;;;5052625;28;20037;-61
2022/07/04 12:30:56;;;;;;;3.67;1.20;;;21.20;99.90;;;;;;5035593;28;20045;-60
2022/07/04 12:33:24;;;;;;;5.70;1.20;;;21.50;97.40;;;;;;5053511;28;20133;-59
2022/07/04 12:36:02;;;;;;;2.13;1.00;;;21.20;99.90;;;;;;5053896;28;20513;-61
2022/07/04 12:38:27;;;;;;;5.00;1.08;;;21.20;99.90;;;;;;5051467;28;20123;-62
2022/07/04 12:41:00;;;;;;;3.13;1.05;;;21.20;99.90;;;;;;5052662;28;20083;-66
2022/07/04 12:43:48;;;;;;;4.35;1.10;;;21.10;99.20;;;;;;5054188;28;20037;-61
2022/07/04 12:46:28;;;;;;;2.63;1.17;;;21.00;99.30;;;;;;5054003;28;20047;-64
2022/07/04 12:48:55;;;;;;;3.00;0.82;;;20.80;99.90;;;;;;5052141;28;20080;-62
2022/07/04 12:51:22;;;;;;;2.85;1.00;;;20.60;99.90;;;;;;5058859;28;20040;-60
2022/07/04 12:53:50;;;;;;;4.57;1.05;;;20.70;99.90;;;;;;5073772;28;20086;-62
2022/07/04 12:56:40;;;;;;;3.97;1.20;;;20.90;99.90;;;;;;5070718;28;20040;-61
2022/07/04 12:59:18;;;;;;;3.45;1.00;;;20.90;99.90;;;;;;5062345;28;20051;-61
2022/07/04 13:01:44;;;;;;;4.00;1.17;;;21.00;99.90;;;;;;5073761;28;20386;-60
2022/07/04 13:04:11;;;;;;;3.80;0.90;;;20.80;99.90;;;;;;5055695;28;20478;-61
2022/07/04 13:06:37;;;;;;;2.28;0.85;;;20.90;99.90;;;;;;5051543;28;20037;-60